Capitol Logistics 209


KLAX
Los Angeles International Airport
Los Angeles, California, US
KMIA
Miami International Airport
Miami, Florida, US

Route Details

Aircraft Information
Primary: Boeing 767-300BDSF
Backup: Boeing 757-200SF
Route Data
Distance: 2091nm
Sched. Duration: 4h 45m
Avg. Duration: 4h 48m (+3m)
Times Flown: 13
Recm'd Route: DOTSS2 CNERY BLH J65 KOFFA J169 TFD J50 ELP J2 JCT J86 LEV Q102 BAGGS SSCOT5
Planned Altitude: 33,000ft
Origin Wx: KLAX 271553Z 04007KT 10SM SCT250 20/M04 A3017 RMK AO2 SLP214 T02001039
Dest. Wx: KMIA 271553Z 32011G19KT 10SM FEW110 BKN140 BKN230 18/05 A3016 RMK AO2 SLP213 T01830050
Notes:

Financial History
Total Freight: 1,918,111lbs
Average Load: 147,547lbs/flt
Fuel Used: 996,368lbs
Avg. Fuel Used: 76,644lbs/flt
Fuel Expense: $1,185,123
Avg. Fuel Expense: $91,163
Avg. Fuel Cost: $1.19/lbs
Total Gross Income: $3,588,796
Pilot Pay: $2,527
Total Expenses: $388,266
Total Revenue: $2,001,200
Average Revenue: $276,061.23